createdAt,value
2023-03-22T00:01:24.032Z,101043.13
2023-03-22T00:03:52.520Z,101042.28
2023-03-22T00:06:21.013Z,101036.06
2023-03-22T00:08:53.338Z,101043.22
2023-03-22T00:11:22.766Z,101045.06
2023-03-22T00:13:52.694Z,101038.84
2023-03-22T00:16:21.703Z,101034.34
2023-03-22T00:18:49.161Z,101038.00
2023-03-22T00:21:17.692Z,101039.84
2023-03-22T00:23:45.510Z,101036.31
2023-03-22T00:26:14.954Z,101042.53
2023-03-22T00:28:43.700Z,101047.03
2023-03-22T00:31:11.264Z,101041.53
2023-03-22T00:33:38.706Z,101042.53
2023-03-22T00:36:09.334Z,101042.53
2023-03-22T00:38:44.858Z,101036.41
2023-03-22T00:41:14.293Z,101039.00
2023-03-22T00:43:41.963Z,101030.09
2023-03-22T00:46:10.831Z,101023.88
2023-03-22T00:48:38.570Z,101023.88
2023-03-22T00:51:07.426Z,101016.78
2023-03-22T00:53:37.402Z,101017.63
2023-03-22T00:56:06.150Z,101008.72
2023-03-22T00:58:43.378Z,101014.09
2023-03-22T01:01:14.608Z,101014.94
2023-03-22T01:03:43.652Z,101008.72
2023-03-22T01:06:14.628Z,101006.03
2023-03-22T01:08:41.980Z,100994.47
2023-03-22T01:11:09.664Z,101003.38
2023-03-22T01:13:37.787Z,100996.31
2023-03-22T01:16:06.794Z,100994.47
2023-03-22T01:18:35.857Z,100991.91
2023-03-22T01:21:03.981Z,100998.97
2023-03-22T01:23:31.950Z,100997.28
2023-03-22T01:25:59.634Z,100992.78
2023-03-22T01:28:27.554Z,100997.28
2023-03-22T01:30:55.460Z,100996.31
2023-03-22T01:33:22.954Z,100992.91
2023-03-22T01:35:51.660Z,100999.97
2023-03-22T01:38:20.461Z,100992.91
2023-03-22T01:40:55.308Z,100995.59
2023-03-22T01:43:22.952Z,100996.44
2023-03-22T01:45:52.314Z,100994.72
2023-03-22T01:48:27.228Z,100998.28
2023-03-22T01:51:12.259Z,100995.59
2023-03-22T01:54:12.316Z,101000.06
2023-03-22T01:56:41.746Z,100996.53
2023-03-22T01:59:15.467Z,100992.03
2023-03-22T02:02:10.933Z,100998.38
2023-03-22T02:04:39.363Z,100993.00
2023-03-22T02:07:15.643Z,100997.53
2023-03-22T02:09:46.621Z,100987.66
2023-03-22T02:12:17.665Z,100992.16
2023-03-22T02:15:23.342Z,100994.84
2023-03-22T02:18:17.075Z,100985.94
2023-03-22T02:20:53.064Z,100987.78
2023-03-22T02:23:58.771Z,100977.91
2023-03-22T02:26:47.590Z,100983.25
2023-03-22T02:29:19.252Z,100984.25
2023-03-22T02:31:55.548Z,100979.72
2023-03-22T02:34:47.503Z,100985.94
2023-03-22T02:37:27.139Z,100982.41
2023-03-22T02:40:03.975Z,100977.06
2023-03-22T02:42:34.032Z,100981.56
2023-03-22T02:45:24.680Z,100979.84
2023-03-22T02:48:16.590Z,100986.94
2023-03-22T02:50:53.569Z,100978.88
2023-03-22T02:53:40.786Z,100983.41
2023-03-22T02:56:13.218Z,100981.44
2023-03-22T02:58:57.874Z,100984.13
2023-03-22T03:01:33.376Z,100983.25
2023-03-22T03:04:04.947Z,100990.47
2023-03-22T03:06:38.938Z,100997.66
2023-03-22T03:09:08.239Z,101008.25
2023-03-22T03:11:36.653Z,100999.50
2023-03-22T03:14:05.074Z,100999.50
2023-03-22T03:16:36.696Z,100995.00
2023-03-22T03:19:43.476Z,100997.66
2023-03-22T03:22:35.218Z,100998.63
2023-03-22T03:25:14.830Z,100993.25
2023-03-22T03:27:50.953Z,101004.88
2023-03-22T03:30:31.539Z,101006.66
2023-03-22T03:33:04.392Z,100997.78
2023-03-22T03:35:38.378Z,100999.59
2023-03-22T03:38:13.552Z,101002.28
2023-03-22T03:40:45.630Z,101006.81
2023-03-22T03:43:14.268Z,101003.13
2023-03-22T03:45:42.271Z,101013.03
2023-03-22T03:48:18.384Z,101020.22
2023-03-22T03:50:47.749Z,101029.97
2023-03-22T03:53:15.080Z,101017.53
2023-03-22T03:55:42.375Z,101022.91
2023-03-22T03:58:10.333Z,101025.59
2023-03-22T04:00:38.575Z,101024.75
2023-03-22T04:03:28.813Z,101028.28
2023-03-22T04:06:14.694Z,101033.63
2023-03-22T04:08:46.810Z,101026.56
2023-03-22T04:11:16.767Z,101029.25
2023-03-22T04:13:47.364Z,101033.78
2023-03-22T04:16:19.955Z,101029.25
2023-03-22T04:18:47.601Z,101031.09
2023-03-22T04:21:16.475Z,101032.03
2023-03-22T04:24:02.620Z,101024.84
2023-03-22T04:26:35.302Z,101025.72
2023-03-22T04:29:25.762Z,101035.56
2023-03-22T04:31:59.684Z,101032.88
2023-03-22T04:34:46.387Z,101035.56
2023-03-22T04:37:16.308Z,101032.88
2023-03-22T04:39:57.967Z,101036.56
2023-03-22T04:43:04.344Z,101044.59
2023-03-22T04:45:55.111Z,101043.75
2023-03-22T04:48:28.108Z,101040.09
2023-03-22T04:50:57.049Z,101036.56
2023-03-22T04:53:27.583Z,101043.75
2023-03-22T04:55:59.297Z,101044.59
2023-03-22T04:58:28.527Z,101044.59
2023-03-22T05:00:55.774Z,101042.06
2023-03-22T05:03:23.805Z,101047.28
2023-03-22T05:06:01.503Z,101041.06
2023-03-22T05:08:38.467Z,101042.91
2023-03-22T05:11:13.304Z,101049.13
2023-03-22T05:13:42.294Z,101045.72
2023-03-22T05:16:10.449Z,101049.25
2023-03-22T05:18:46.393Z,101046.56
2023-03-22T05:21:16.064Z,101046.56
2023-03-22T05:23:45.724Z,101043.16
2023-03-22T05:26:20.481Z,101051.09
2023-03-22T05:28:47.869Z,101052.88
2023-03-22T05:31:22.670Z,101051.09
2023-03-22T05:33:56.514Z,101049.34
2023-03-22T05:36:29.664Z,101052.88
2023-03-22T05:39:17.384Z,101059.00
2023-03-22T05:41:46.312Z,101061.81
2023-03-22T05:44:14.280Z,101060.00
2023-03-22T05:46:50.894Z,101059.13
2023-03-22T05:49:31.785Z,101060.00
2023-03-22T05:51:59.061Z,101060.94
2023-03-22T05:54:37.728Z,101060.94
2023-03-22T05:57:06.561Z,101063.63
2023-03-22T05:59:33.916Z,101063.63
2023-03-22T06:02:01.560Z,101059.25
2023-03-22T06:04:31.584Z,101065.47
2023-03-22T06:07:02.930Z,101065.47
2023-03-22T06:09:50.351Z,101062.78
2023-03-22T06:12:24.697Z,101062.78
2023-03-22T06:15:09.763Z,101064.50
2023-03-22T06:18:01.665Z,101071.66
2023-03-22T06:20:33.014Z,101071.66
2023-03-22T06:23:04.322Z,101071.66
2023-03-22T06:25:32.524Z,101066.31
2023-03-22T06:28:00.840Z,101064.59
2023-03-22T06:30:29.627Z,101065.47
2023-03-22T06:33:36.512Z,101069.97
2023-03-22T06:36:21.149Z,101070.97
2023-03-22T06:39:23.865Z,101081.56
2023-03-22T06:41:52.356Z,101075.34
2023-03-22T06:44:19.897Z,101079.00
2023-03-22T06:46:52.801Z,101087.91
2023-03-22T06:49:46.179Z,101089.72
2023-03-22T06:52:26.415Z,101087.06
2023-03-22T06:54:53.723Z,101086.06
2023-03-22T06:57:21.235Z,101080.84
2023-03-22T06:59:48.553Z,101079.00
2023-03-22T07:02:15.963Z,101083.53
2023-03-22T07:05:01.843Z,101090.59
2023-03-22T07:07:29.196Z,101095.09
2023-03-22T07:09:57.024Z,101102.16
2023-03-22T07:12:24.681Z,101095.09
2023-03-22T07:14:52.356Z,101094.25
2023-03-22T07:17:43.588Z,101099.63
2023-03-22T07:20:11.256Z,101100.47
2023-03-22T07:22:38.740Z,101103.16
2023-03-22T07:25:06.380Z,101112.03
2023-03-22T07:27:34.402Z,101110.22
2023-03-22T07:30:01.940Z,101093.25
2023-03-22T07:32:32.743Z,101094.13
2023-03-22T07:35:11.858Z,101105.69
2023-03-22T07:37:40.608Z,101103.88
2023-03-22T07:40:17.263Z,101104.75
2023-03-22T07:42:44.578Z,101103.88
2023-03-22T07:45:35.874Z,101099.38
2023-03-22T07:48:23.862Z,101110.69
2023-03-22T07:51:17.695Z,101104.38
2023-03-22T07:53:45.044Z,101112.28
2023-03-22T07:56:12.530Z,101099.72
2023-03-22T07:58:40.020Z,101100.56
2023-03-22T08:01:09.997Z,101107.66
2023-03-22T08:03:54.191Z,101104.97
2023-03-22T08:06:40.379Z,101109.38
2023-03-22T08:09:08.458Z,101110.22
2023-03-22T08:11:36.662Z,101107.41
2023-03-22T08:14:03.896Z,101106.44
2023-03-22T08:16:34.205Z,101105.47
2023-03-22T08:19:03.589Z,101099.25
2023-03-22T08:21:34.766Z,101102.63
2023-03-22T08:24:05.844Z,101109.75
2023-03-22T08:26:56.225Z,101111.44
2023-03-22T08:29:31.275Z,101108.75
2023-03-22T08:32:02.266Z,101106.91
2023-03-22T08:34:31.492Z,101112.91
2023-03-22T08:36:59.038Z,101106.69
2023-03-22T08:39:27.110Z,101112.06
2023-03-22T08:42:12.250Z,101108.25
2023-03-22T08:44:39.545Z,101111.69
2023-03-22T08:47:07.007Z,101113.50
2023-03-22T08:49:34.907Z,101116.91
2023-03-22T08:52:10.598Z,101115.91
2023-03-22T08:55:05.351Z,101115.81
2023-03-22T08:58:02.037Z,101123.72
2023-03-22T09:00:48.176Z,101113.00
2023-03-22T09:03:43.702Z,101117.38
2023-03-22T09:06:11.253Z,101120.06
2023-03-22T09:08:42.105Z,101121.78
2023-03-22T09:11:14.347Z,101124.34
2023-03-22T09:13:43.677Z,101120.66
2023-03-22T09:16:11.338Z,101119.72
2023-03-22T09:18:40.183Z,101123.25
2023-03-22T09:21:14.608Z,101120.56
2023-03-22T09:24:05.102Z,101125.09
2023-03-22T09:26:46.064Z,101125.09
2023-03-22T09:29:16.072Z,101118.84
2023-03-22T09:31:44.604Z,101122.41
2023-03-22T09:34:18.370Z,101127.78
2023-03-22T09:36:47.504Z,101122.41
2023-03-22T09:39:17.205Z,101122.41
2023-03-22T09:41:51.813Z,101124.09
2023-03-22T09:44:56.007Z,101118.72
2023-03-22T09:47:44.158Z,101114.06
2023-03-22T09:50:28.528Z,101115.81
2023-03-22T09:52:55.839Z,101105.06
2023-03-22T09:56:15.436Z,101112.13
2023-03-22T09:59:15.942Z,101102.25
2023-03-22T10:01:57.113Z,101105.78
2023-03-22T10:04:34.678Z,101105.78
2023-03-22T10:07:29.881Z,101103.09
2023-03-22T10:10:18.202Z,101094.06
2023-03-22T10:13:23.249Z,101094.19
2023-03-22T10:15:56.173Z,101093.34
2023-03-22T10:18:30.153Z,101095.91
2023-03-22T10:21:02.880Z,101098.72
2023-03-22T10:24:05.254Z,101086.38
2023-03-22T10:26:37.157Z,101087.22
2023-03-22T10:29:16.738Z,101093.44
2023-03-22T10:31:45.175Z,101091.66
2023-03-22T10:34:33.710Z,101089.91
2023-03-22T10:37:04.293Z,101089.06
2023-03-22T10:39:38.345Z,101090.78
2023-03-22T10:42:12.953Z,101086.28
2023-03-22T10:44:48.123Z,101086.28
2023-03-22T10:47:21.872Z,101082.72
2023-03-22T10:49:56.180Z,101083.59
2023-03-22T10:52:57.353Z,101085.28
2023-03-22T10:55:25.488Z,101088.97
2023-03-22T10:58:12.199Z,101080.91
2023-03-22T11:00:45.587Z,101085.41
2023-03-22T11:03:36.951Z,101074.81
2023-03-22T11:06:22.958Z,101078.22
2023-03-22T11:08:54.872Z,101068.44
2023-03-22T11:11:26.073Z,101079.19
2023-03-22T11:14:23.738Z,101075.66
2023-03-22T11:17:00.638Z,101067.59
2023-03-22T11:19:37.111Z,101065.75
2023-03-22T11:22:26.650Z,101057.72
2023-03-22T11:24:56.783Z,101062.22
2023-03-22T11:27:29.379Z,101062.22
2023-03-22T11:30:17.181Z,101057.72
2023-03-22T11:32:44.576Z,101052.34
2023-03-22T11:35:20.639Z,101060.38
2023-03-22T11:37:56.048Z,101052.34
2023-03-22T11:40:33.375Z,101046.97
2023-03-22T11:43:24.927Z,101050.63
2023-03-22T11:45:57.382Z,101052.34
2023-03-22T11:48:27.800Z,101047.09
2023-03-22T11:51:04.348Z,101042.59
2023-03-22T11:53:34.520Z,101030.88
2023-03-22T11:56:07.444Z,101035.38
2023-03-22T11:58:37.523Z,101032.69
2023-03-22T12:01:06.150Z,101029.16
2023-03-22T12:03:39.509Z,101030.00
2023-03-22T12:06:19.256Z,101026.47
2023-03-22T12:08:55.132Z,101013.06
2023-03-22T12:11:37.780Z,101010.38
2023-03-22T12:14:21.298Z,101013.06
2023-03-22T12:17:14.842Z,101009.53
2023-03-22T12:20:09.724Z,101010.38
2023-03-22T12:22:45.622Z,101003.19
2023-03-22T12:25:17.540Z,100999.66
2023-03-22T12:27:52.635Z,100996.13
2023-03-22T12:30:23.779Z,100990.75
2023-03-22T12:33:02.617Z,100986.22
2023-03-22T12:35:33.520Z,100982.56
2023-03-22T12:38:21.798Z,100987.06
2023-03-22T12:40:50.991Z,100980.84
2023-03-22T12:43:44.733Z,100980.72
2023-03-22T12:46:19.812Z,100982.56
2023-03-22T12:48:56.233Z,100977.31
2023-03-22T12:51:23.782Z,100975.50
2023-03-22T12:53:55.188Z,100970.13
2023-03-22T12:56:34.641Z,100971.81
2023-03-22T12:59:05.866Z,100971.81
2023-03-22T13:01:45.691Z,100965.59
2023-03-22T13:04:31.898Z,100961.22
2023-03-22T13:07:14.421Z,100965.59
2023-03-22T13:09:41.907Z,100968.28
2023-03-22T13:12:15.403Z,100962.06
2023-03-22T13:14:48.781Z,100956.69
2023-03-22T13:17:41.246Z,100959.38
2023-03-22T13:20:15.682Z,100951.31
2023-03-22T13:22:45.841Z,100947.66
2023-03-22T13:25:13.517Z,100949.50
2023-03-22T13:27:54.530Z,100955.72
2023-03-22T13:30:24.218Z,100949.50
2023-03-22T13:33:03.490Z,100944.97
2023-03-22T13:35:40.021Z,100939.59
2023-03-22T13:38:29.579Z,100931.56
2023-03-22T13:41:05.306Z,100940.59
2023-03-22T13:43:35.333Z,100935.22
2023-03-22T13:46:17.601Z,100937.91
2023-03-22T13:48:48.499Z,100935.22
2023-03-22T13:51:22.857Z,100927.16
2023-03-22T13:54:18.828Z,100926.19
2023-03-22T13:56:59.619Z,100924.50
2023-03-22T13:59:33.945Z,100916.44
2023-03-22T14:02:07.622Z,100908.38
2023-03-22T14:04:47.568Z,100903.88
2023-03-22T14:07:21.104Z,100906.53
2023-03-22T14:10:11.404Z,100898.50
2023-03-22T14:12:55.966Z,100901.19
2023-03-22T14:15:26.563Z,100894.97
2023-03-22T14:18:04.092Z,100893.13
2023-03-22T14:20:35.641Z,100895.81
